sensor_id;sensor_type;location;lat;lon;timestamp;P1;durP1;ratioP1;P2;durP2;ratioP2
24619;SDS011;12763;55.802;37.404;2024-03-23T00:51:37;48.63;;;19.73;;
24619;SDS011;12763;55.802;37.404;2024-03-23T00:54:03;42.60;;;15.38;;
24619;SDS011;12763;55.802;37.404;2024-03-23T00:56:29;43.40;;;20.25;;
24619;SDS011;12763;55.802;37.404;2024-03-23T00:58:55;48.67;;;19.58;;
24619;SDS011;12763;55.802;37.404;2024-03-23T01:01:21;52.95;;;20.85;;
24619;SDS011;12763;55.802;37.404;2024-03-23T01:03:47;47.75;;;21.05;;
24619;SDS011;12763;55.802;37.404;2024-03-23T01:06:12;47.03;;;20.42;;
24619;SDS011;12763;55.802;37.404;2024-03-23T01:08:38;49.03;;;19.50;;
24619;SDS011;12763;55.802;37.404;2024-03-23T01:11:04;41.20;;;18.88;;
24619;SDS011;12763;55.802;37.404;2024-03-23T01:13:30;44.03;;;18.67;;
24619;SDS011;12763;55.802;37.404;2024-03-23T01:15:56;48.53;;;20.58;;
24619;SDS011;12763;55.802;37.404;2024-03-23T01:18:23;48.05;;;20.08;;
24619;SDS011;12763;55.802;37.404;2024-03-23T01:20:49;47.75;;;20.67;;
24619;SDS011;12763;55.802;37.404;2024-03-23T01:23:15;49.47;;;19.17;;
24619;SDS011;12763;55.802;37.404;2024-03-23T01:25:41;48.67;;;19.88;;
24619;SDS011;12763;55.802;37.404;2024-03-23T01:28:07;49.42;;;20.45;;
24619;SDS011;12763;55.802;37.404;2024-03-23T01:30:34;44.00;;;19.50;;
24619;SDS011;12763;55.802;37.404;2024-03-23T01:33:00;47.22;;;20.98;;
24619;SDS011;12763;55.802;37.404;2024-03-23T01:35:28;48.42;;;18.73;;
24619;SDS011;12763;55.802;37.404;2024-03-23T01:37:54;44.15;;;19.33;;
24619;SDS011;12763;55.802;37.404;2024-03-23T01:40:20;45.78;;;19.38;;
24619;SDS011;12763;55.802;37.404;2024-03-23T01:42:56;42.70;;;19.02;;
24619;SDS011;12763;55.802;37.404;2024-03-23T01:45:23;51.90;;;21.45;;
24619;SDS011;12763;55.802;37.404;2024-03-23T01:47:49;49.22;;;17.48;;
24619;SDS011;12763;55.802;37.404;2024-03-23T01:50:19;44.42;;;17.27;;
24619;SDS011;12763;55.802;37.404;2024-03-23T01:52:46;41.63;;;16.73;;
24619;SDS011;12763;55.802;37.404;2024-03-23T01:55:13;43.03;;;18.90;;
24619;SDS011;12763;55.802;37.404;2024-03-23T01:57:40;53.67;;;21.35;;
24619;SDS011;12763;55.802;37.404;2024-03-23T02:00:07;44.72;;;18.75;;
24619;SDS011;12763;55.802;37.404;2024-03-23T02:02:49;46.95;;;20.23;;
24619;SDS011;12763;55.802;37.404;2024-03-23T02:05:15;44.08;;;18.48;;
24619;SDS011;12763;55.802;37.404;2024-03-23T02:07:42;50.13;;;19.25;;
24619;SDS011;12763;55.802;37.404;2024-03-23T02:10:09;49.72;;;19.02;;
24619;SDS011;12763;55.802;37.404;2024-03-23T02:12:39;52.38;;;20.88;;
24619;SDS011;12763;55.802;37.404;2024-03-23T02:15:05;49.80;;;19.20;;
24619;SDS011;12763;55.802;37.404;2024-03-23T02:17:33;51.20;;;21.17;;
24619;SDS011;12763;55.802;37.404;2024-03-23T02:20:04;49.33;;;20.00;;
24619;SDS011;12763;55.802;37.404;2024-03-23T02:22:38;50.90;;;19.10;;
24619;SDS011;12763;55.802;37.404;2024-03-23T02:25:05;53.03;;;19.08;;
24619;SDS011;12763;55.802;37.404;2024-03-23T02:27:31;53.05;;;20.77;;
24619;SDS011;12763;55.802;37.404;2024-03-23T02:29:58;41.63;;;17.70;;
24619;SDS011;12763;55.802;37.404;2024-03-23T02:32:24;42.67;;;17.77;;
24619;SDS011;12763;55.802;37.404;2024-03-23T02:34:50;48.28;;;20.13;;
24619;SDS011;12763;55.802;37.404;2024-03-23T02:37:16;46.13;;;19.77;;
24619;SDS011;12763;55.802;37.404;2024-03-23T02:39:42;49.40;;;19.73;;
24619;SDS011;12763;55.802;37.404;2024-03-23T02:42:08;46.08;;;19.60;;
24619;SDS011;12763;55.802;37.404;2024-03-23T02:44:34;45.35;;;18.88;;
24619;SDS011;12763;55.802;37.404;2024-03-23T02:47:00;43.88;;;19.95;;
24619;SDS011;12763;55.802;37.404;2024-03-23T02:49:26;46.72;;;20.83;;
24619;SDS011;12763;55.802;37.404;2024-03-23T02:51:52;48.33;;;20.80;;
24619;SDS011;12763;55.802;37.404;2024-03-23T02:54:18;50.78;;;18.27;;
24619;SDS011;12763;55.802;37.404;2024-03-23T02:56:44;53.67;;;20.35;;
24619;SDS011;12763;55.802;37.404;2024-03-23T02:59:09;49.60;;;20.02;;
24619;SDS011;12763;55.802;37.404;2024-03-23T03:01:35;42.70;;;20.02;;
24619;SDS011;12763;55.802;37.404;2024-03-23T03:04:01;49.25;;;17.73;;
24619;SDS011;12763;55.802;37.404;2024-03-23T03:06:27;59.85;;;20.38;;
24619;SDS011;12763;55.802;37.404;2024-03-23T03:08:55;49.83;;;19.73;;
24619;SDS011;12763;55.802;37.404;2024-03-23T03:11:21;43.22;;;18.98;;
24619;SDS011;12763;55.802;37.404;2024-03-23T03:13:47;51.03;;;20.73;;
24619;SDS011;12763;55.802;37.404;2024-03-23T03:16:13;44.85;;;19.20;;
24619;SDS011;12763;55.802;37.404;2024-03-23T03:18:39;49.97;;;21.05;;
24619;SDS011;12763;55.802;37.404;2024-03-23T03:21:06;48.30;;;20.27;;
24619;SDS011;12763;55.802;37.404;2024-03-23T03:23:37;53.50;;;21.77;;
24619;SDS011;12763;55.802;37.404;2024-03-23T03:26:06;49.13;;;19.48;;
24619;SDS011;12763;55.802;37.404;2024-03-23T03:28:33;50.50;;;20.45;;
24619;SDS011;12763;55.802;37.404;2024-03-23T03:31:00;44.95;;;20.33;;
24619;SDS011;12763;55.802;37.404;2024-03-23T03:33:26;52.20;;;21.92;;
24619;SDS011;12763;55.802;37.404;2024-03-23T03:35:53;50.63;;;21.25;;
24619;SDS011;12763;55.802;37.404;2024-03-23T03:38:19;52.90;;;21.00;;
24619;SDS011;12763;55.802;37.404;2024-03-23T03:40:45;45.90;;;20.15;;
24619;SDS011;12763;55.802;37.404;2024-03-23T03:43:11;52.92;;;21.17;;
24619;SDS011;12763;55.802;37.404;2024-03-23T03:45:37;56.03;;;23.63;;
24619;SDS011;12763;55.802;37.404;2024-03-23T03:48:03;54.15;;;21.17;;
24619;SDS011;12763;55.802;37.404;2024-03-23T03:50:29;54.72;;;20.75;;
24619;SDS011;12763;55.802;37.404;2024-03-23T03:52:56;49.00;;;20.77;;
24619;SDS011;12763;55.802;37.404;2024-03-23T03:55:22;51.42;;;21.83;;
24619;SDS011;12763;55.802;37.404;2024-03-23T03:57:48;52.97;;;21.27;;
24619;SDS011;12763;55.802;37.404;2024-03-23T04:00:14;45.78;;;20.92;;
24619;SDS011;12763;55.802;37.404;2024-03-23T04:02:41;57.42;;;21.60;;
24619;SDS011;12763;55.802;37.404;2024-03-23T04:05:07;54.25;;;20.50;;
24619;SDS011;12763;55.802;37.404;2024-03-23T04:07:34;47.03;;;19.58;;
24619;SDS011;12763;55.802;37.404;2024-03-23T04:10:00;52.13;;;19.65;;
24619;SDS011;12763;55.802;37.404;2024-03-23T04:12:26;47.55;;;20.20;;
24619;SDS011;12763;55.802;37.404;2024-03-23T04:14:52;51.42;;;20.83;;
24619;SDS011;12763;55.802;37.404;2024-03-23T04:17:18;47.38;;;20.25;;
24619;SDS011;12763;55.802;37.404;2024-03-23T04:19:44;44.88;;;20.25;;
24619;SDS011;12763;55.802;37.404;2024-03-23T04:22:10;58.45;;;22.23;;
24619;SDS011;12763;55.802;37.404;2024-03-23T04:24:37;41.00;;;18.73;;
24619;SDS011;12763;55.802;37.404;2024-03-23T04:27:02;43.92;;;18.58;;
24619;SDS011;12763;55.802;37.404;2024-03-23T04:29:28;53.33;;;21.50;;
24619;SDS011;12763;55.802;37.404;2024-03-23T04:31:54;45.35;;;19.83;;
24619;SDS011;12763;55.802;37.404;2024-03-23T04:34:21;50.50;;;20.40;;
24619;SDS011;12763;55.802;37.404;2024-03-23T04:36:48;45.47;;;19.65;;
24619;SDS011;12763;55.802;37.404;2024-03-23T04:39:14;45.00;;;20.38;;
24619;SDS011;12763;55.802;37.404;2024-03-23T04:41:40;50.55;;;20.55;;
24619;SDS011;12763;55.802;37.404;2024-03-23T04:44:07;48.08;;;20.42;;
24619;SDS011;12763;55.802;37.404;2024-03-23T04:46:33;41.28;;;19.52;;
24619;SDS011;12763;55.802;37.404;2024-03-23T04:48:59;44.35;;;19.35;;
24619;SDS011;12763;55.802;37.404;2024-03-23T04:51:24;42.67;;;18.80;;
24619;SDS011;12763;55.802;37.404;2024-03-23T04:53:51;46.47;;;19.02;;
24619;SDS011;12763;55.802;37.404;2024-03-23T04:56:18;47.50;;;18.85;;
24619;SDS011;12763;55.802;37.404;2024-03-23T04:58:44;38.25;;;15.48;;
24619;SDS011;12763;55.802;37.404;2024-03-23T05:01:11;44.58;;;17.70;;
24619;SDS011;12763;55.802;37.404;2024-03-23T05:03:37;45.53;;;18.83;;
24619;SDS011;12763;55.802;37.404;2024-03-23T05:06:03;38.05;;;17.80;;
24619;SDS011;12763;55.802;37.404;2024-03-23T05:08:31;39.25;;;16.75;;
24619;SDS011;12763;55.802;37.404;2024-03-23T05:10:57;42.53;;;17.13;;
24619;SDS011;12763;55.802;37.404;2024-03-23T05:13:23;44.92;;;16.25;;
24619;SDS011;12763;55.802;37.404;2024-03-23T05:15:55;39.08;;;16.17;;
24619;SDS011;12763;55.802;37.404;2024-03-23T05:18:21;39.30;;;16.42;;
24619;SDS011;12763;55.802;37.404;2024-03-23T05:21:06;44.00;;;18.05;;
24619;SDS011;12763;55.802;37.404;2024-03-23T05:23:32;42.58;;;19.95;;
24619;SDS011;12763;55.802;37.404;2024-03-23T05:25:58;32.38;;;16.45;;
24619;SDS011;12763;55.802;37.404;2024-03-23T05:28:24;36.25;;;16.35;;
24619;SDS011;12763;55.802;37.404;2024-03-23T05:30:53;41.20;;;17.48;;
24619;SDS011;12763;55.802;37.404;2024-03-23T05:33:20;40.30;;;17.83;;
24619;SDS011;12763;55.802;37.404;2024-03-23T05:35:46;42.75;;;16.83;;
24619;SDS011;12763;55.802;37.404;2024-03-23T05:38:13;37.03;;;16.58;;
24619;SDS011;12763;55.802;37.404;2024-03-23T05:40:39;35.55;;;15.88;;
24619;SDS011;12763;55.802;37.404;2024-03-23T05:43:06;32.33;;;15.15;;
24619;SDS011;12763;55.802;37.404;2024-03-23T05:45:32;30.70;;;12.48;;
24619;SDS011;12763;55.802;37.404;2024-03-23T05:47:58;35.50;;;14.73;;
24619;SDS011;12763;55.802;37.404;2024-03-23T05:50:24;40.33;;;16.23;;
24619;SDS011;12763;55.802;37.404;2024-03-23T05:52:50;30.27;;;14.13;;
24619;SDS011;12763;55.802;37.404;2024-03-23T05:55:16;35.40;;;14.88;;
24619;SDS011;12763;55.802;37.404;2024-03-23T05:57:43;32.78;;;14.63;;
24619;SDS011;12763;55.802;37.404;2024-03-23T06:00:09;28.02;;;13.65;;
24619;SDS011;12763;55.802;37.404;2024-03-23T06:02:41;29.35;;;13.30;;
24619;SDS011;12763;55.802;37.404;2024-03-23T06:05:12;29.10;;;13.93;;
24619;SDS011;12763;55.802;37.404;2024-03-23T06:07:38;25.80;;;13.07;;
24619;SDS011;12763;55.802;37.404;2024-03-23T06:10:04;28.13;;;13.77;;
24619;SDS011;12763;55.802;37.404;2024-03-23T06:12:31;30.55;;;14.43;;
24619;SDS011;12763;55.802;37.404;2024-03-23T06:14:57;22.23;;;10.52;;
24619;SDS011;12763;55.802;37.404;2024-03-23T06:17:23;27.35;;;12.70;;
24619;SDS011;12763;55.802;37.404;2024-03-23T06:19:49;25.25;;;12.77;;
24619;SDS011;12763;55.802;37.404;2024-03-23T06:22:34;26.58;;;12.07;;
24619;SDS011;12763;55.802;37.404;2024-03-23T06:25:00;26.98;;;13.13;;
24619;SDS011;12763;55.802;37.404;2024-03-23T06:27:26;26.83;;;12.70;;
24619;SDS011;12763;55.802;37.404;2024-03-23T06:29:52;24.08;;;12.68;;
24619;SDS011;12763;55.802;37.404;2024-03-23T06:32:17;28.52;;;12.48;;
24619;SDS011;12763;55.802;37.404;2024-03-23T06:34:44;25.40;;;11.40;;
24619;SDS011;12763;55.802;37.404;2024-03-23T06:37:11;25.85;;;11.82;;
24619;SDS011;12763;55.802;37.404;2024-03-23T06:39:37;20.55;;;10.10;;
24619;SDS011;12763;55.802;37.404;2024-03-23T06:42:03;23.42;;;11.65;;
24619;SDS011;12763;55.802;37.404;2024-03-23T06:44:30;24.17;;;10.57;;
24619;SDS011;12763;55.802;37.404;2024-03-23T06:46:57;27.05;;;12.23;;
24619;SDS011;12763;55.802;37.404;2024-03-23T06:49:23;21.85;;;10.35;;
24619;SDS011;12763;55.802;37.404;2024-03-23T06:51:49;25.58;;;10.30;;
24619;SDS011;12763;55.802;37.404;2024-03-23T06:54:18;19.58;;;10.77;;
24619;SDS011;12763;55.802;37.404;2024-03-23T06:56:45;25.48;;;11.43;;
24619;SDS011;12763;55.802;37.404;2024-03-23T06:59:11;21.67;;;10.95;;
24619;SDS011;12763;55.802;37.404;2024-03-23T07:01:37;29.17;;;10.15;;
24619;SDS011;12763;55.802;37.404;2024-03-23T07:04:03;22.67;;;10.93;;
24619;SDS011;12763;55.802;37.404;2024-03-23T07:06:30;24.95;;;12.05;;
24619;SDS011;12763;55.802;37.404;2024-03-23T07:08:57;20.55;;;9.13;;
24619;SDS011;12763;55.802;37.404;2024-03-23T07:11:23;24.90;;;11.77;;
24619;SDS011;12763;55.802;37.404;2024-03-23T07:13:49;18.85;;;11.25;;
24619;SDS011;12763;55.802;37.404;2024-03-23T07:16:16;19.80;;;10.15;;
24619;SDS011;12763;55.802;37.404;2024-03-23T07:18:42;25.25;;;11.77;;
24619;SDS011;12763;55.802;37.404;2024-03-23T07:21:08;24.85;;;11.70;;
24619;SDS011;12763;55.802;37.404;2024-03-23T07:23:34;23.33;;;12.23;;
24619;SDS011;12763;55.802;37.404;2024-03-23T07:26:04;19.13;;;11.05;;
24619;SDS011;12763;55.802;37.404;2024-03-23T07:28:31;19.35;;;10.65;;
24619;SDS011;12763;55.802;37.404;2024-03-23T07:33:29;20.65;;;11.27;;
24619;SDS011;12763;55.802;37.404;2024-03-23T07:35:55;22.30;;;11.20;;
24619;SDS011;12763;55.802;37.404;2024-03-23T07:38:21;19.25;;;9.90;;
24619;SDS011;12763;55.802;37.404;2024-03-23T07:40:47;16.98;;;9.55;;
24619;SDS011;12763;55.802;37.404;2024-03-23T07:43:15;17.45;;;9.75;;
24619;SDS011;12763;55.802;37.404;2024-03-23T07:45:41;21.25;;;10.07;;
24619;SDS011;12763;55.802;37.404;2024-03-23T07:48:07;20.15;;;10.30;;
24619;SDS011;12763;55.802;37.404;2024-03-23T07:50:33;15.93;;;9.02;;
24619;SDS011;12763;55.802;37.404;2024-03-23T07:52:59;20.80;;;10.48;;
24619;SDS011;12763;55.802;37.404;2024-03-23T07:55:24;19.77;;;8.68;;
24619;SDS011;12763;55.802;37.404;2024-03-23T07:57:51;24.38;;;10.60;;
24619;SDS011;12763;55.802;37.404;2024-03-23T08:00:17;17.75;;;10.60;;
24619;SDS011;12763;55.802;37.404;2024-03-23T08:02:43;18.98;;;7.55;;
24619;SDS011;12763;55.802;37.404;2024-03-23T08:05:09;21.23;;;9.60;;
24619;SDS011;12763;55.802;37.404;2024-03-23T08:07:35;20.20;;;10.48;;
24619;SDS011;12763;55.802;37.404;2024-03-23T08:10:00;17.77;;;9.20;;
24619;SDS011;12763;55.802;37.404;2024-03-23T08:12:29;18.10;;;9.40;;
24619;SDS011;12763;55.802;37.404;2024-03-23T08:14:55;16.90;;;8.90;;
24619;SDS011;12763;55.802;37.404;2024-03-23T08:17:21;17.92;;;8.60;;
24619;SDS011;12763;55.802;37.404;2024-03-23T08:19:48;16.58;;;8.02;;
24619;SDS011;12763;55.802;37.404;2024-03-23T08:22:14;23.58;;;10.88;;
24619;SDS011;12763;55.802;37.404;2024-03-23T08:24:40;33.88;;;10.20;;
24619;SDS011;12763;55.802;37.404;2024-03-23T08:27:06;17.90;;;8.85;;
24619;SDS011;12763;55.802;37.404;2024-03-23T08:29:32;15.93;;;8.43;;
24619;SDS011;12763;55.802;37.404;2024-03-23T08:31:58;21.25;;;9.60;;
24619;SDS011;12763;55.802;37.404;2024-03-23T08:34:24;15.98;;;9.50;;
24619;SDS011;12763;55.802;37.404;2024-03-23T08:36:50;18.13;;;10.20;;
24619;SDS011;12763;55.802;37.404;2024-03-23T08:39:16;18.73;;;10.07;;
24619;SDS011;12763;55.802;37.404;2024-03-23T08:41:42;18.38;;;9.25;;
24619;SDS011;12763;55.802;37.404;2024-03-23T08:44:11;21.77;;;9.98;;
24619;SDS011;12763;55.802;37.404;2024-03-23T08:46:37;16.70;;;8.50;;
24619;SDS011;12763;55.802;37.404;2024-03-23T08:49:03;22.90;;;10.20;;
24619;SDS011;12763;55.802;37.404;2024-03-23T08:51:29;18.45;;;9.98;;
24619;SDS011;12763;55.802;37.404;2024-03-23T08:53:55;18.08;;;10.32;;
24619;SDS011;12763;55.802;37.404;2024-03-23T08:56:21;17.25;;;9.88;;
24619;SDS011;12763;55.802;37.404;2024-03-23T08:58:47;17.58;;;9.02;;
24619;SDS011;12763;55.802;37.404;2024-03-23T09:01:13;18.08;;;9.65;;
24619;SDS011;12763;55.802;37.404;2024-03-23T09:03:39;17.77;;;9.77;;
24619;SDS011;12763;55.802;37.404;2024-03-23T09:06:09;18.67;;;9.10;;
24619;SDS011;12763;55.802;37.404;2024-03-23T09:08:37;18.13;;;7.90;;
24619;SDS011;12763;55.802;37.404;2024-03-23T09:11:04;15.60;;;8.23;;
24619;SDS011;12763;55.802;37.404;2024-03-23T09:13:34;16.52;;;8.20;;
24619;SDS011;12763;55.802;37.404;2024-03-23T09:16:00;20.08;;;9.90;;
24619;SDS011;12763;55.802;37.404;2024-03-23T09:18:27;17.05;;;9.25;;
24619;SDS011;12763;55.802;37.404;2024-03-23T09:20:53;17.35;;;9.52;;
24619;SDS011;12763;55.802;37.404;2024-03-23T09:23:21;16.02;;;8.82;;
24619;SDS011;12763;55.802;37.404;2024-03-23T09:25:47;21.70;;;10.07;;
24619;SDS011;12763;55.802;37.404;2024-03-23T09:28:13;16.20;;;9.02;;
24619;SDS011;12763;55.802;37.404;2024-03-23T09:30:38;24.08;;;10.00;;
24619;SDS011;12763;55.802;37.404;2024-03-23T09:33:08;21.67;;;9.25;;
24619;SDS011;12763;55.802;37.404;2024-03-23T09:38:22;20.50;;;9.93;;
24619;SDS011;12763;55.802;37.404;2024-03-23T09:40:52;18.05;;;9.43;;
24619;SDS011;12763;55.802;37.404;2024-03-23T09:43:19;22.88;;;11.57;;
24619;SDS011;12763;55.802;37.404;2024-03-23T09:45:45;21.23;;;9.50;;
24619;SDS011;12763;55.802;37.404;2024-03-23T09:48:12;17.90;;;9.57;;
24619;SDS011;12763;55.802;37.404;2024-03-23T09:50:39;15.23;;;9.43;;
24619;SDS011;12763;55.802;37.404;2024-03-23T09:53:10;19.85;;;10.13;;
24619;SDS011;12763;55.802;37.404;2024-03-23T09:55:43;17.27;;;9.70;;
24619;SDS011;12763;55.802;37.404;2024-03-23T09:58:15;19.05;;;9.82;;
24619;SDS011;12763;55.802;37.404;2024-03-23T10:00:41;16.45;;;8.68;;
24619;SDS011;12763;55.802;37.404;2024-03-23T10:03:08;17.55;;;9.18;;
24619;SDS011;12763;55.802;37.404;2024-03-23T10:05:36;21.05;;;10.48;;
24619;SDS011;12763;55.802;37.404;2024-03-23T10:10:38;15.60;;;8.48;;
24619;SDS011;12763;55.802;37.404;2024-03-23T10:13:05;14.13;;;7.70;;
24619;SDS011;12763;55.802;37.404;2024-03-23T10:15:30;17.38;;;8.68;;
24619;SDS011;12763;55.802;37.404;2024-03-23T10:20:41;19.75;;;8.55;;
24619;SDS011;12763;55.802;37.404;2024-03-23T10:23:10;16.95;;;9.23;;
24619;SDS011;12763;55.802;37.404;2024-03-23T10:25:41;14.85;;;7.53;;
24619;SDS011;12763;55.802;37.404;2024-03-23T10:28:07;13.93;;;7.97;;
24619;SDS011;12763;55.802;37.404;2024-03-23T10:30:35;18.77;;;9.82;;
24619;SDS011;12763;55.802;37.404;2024-03-23T10:33:10;20.67;;;8.23;;
24619;SDS011;12763;55.802;37.404;2024-03-23T10:35:37;19.60;;;9.55;;
24619;SDS011;12763;55.802;37.404;2024-03-23T10:38:07;15.35;;;8.55;;
24619;SDS011;12763;55.802;37.404;2024-03-23T10:40:34;18.67;;;9.20;;
24619;SDS011;12763;55.802;37.404;2024-03-23T10:43:01;17.92;;;8.27;;
24619;SDS011;12763;55.802;37.404;2024-03-23T10:45:29;15.55;;;9.20;;
24619;SDS011;12763;55.802;37.404;2024-03-23T10:47:56;15.98;;;8.52;;
24619;SDS011;12763;55.802;37.404;2024-03-23T10:50:22;17.63;;;9.02;;
24619;SDS011;12763;55.802;37.404;2024-03-23T10:52:49;17.00;;;9.85;;
24619;SDS011;12763;55.802;37.404;2024-03-23T10:55:15;20.38;;;10.98;;
24619;SDS011;12763;55.802;37.404;2024-03-23T10:57:44;18.63;;;9.90;;
24619;SDS011;12763;55.802;37.404;2024-03-23T11:00:15;14.45;;;8.40;;
24619;SDS011;12763;55.802;37.404;2024-03-23T11:02:41;17.77;;;9.75;;
24619;SDS011;12763;55.802;37.404;2024-03-23T11:08:11;19.30;;;10.10;;
24619;SDS011;12763;55.802;37.404;2024-03-23T11:11:41;17.23;;;8.77;;
24619;SDS011;12763;55.802;37.404;2024-03-23T11:13:49;15.68;;;8.55;;
24619;SDS011;12763;55.802;37.404;2024-03-23T11:16:33;14.93;;;8.23;;
24619;SDS011;12763;55.802;37.404;2024-03-23T11:22:02;17.83;;;10.07;;
24619;SDS011;12763;55.802;37.404;2024-03-23T11:24:29;14.43;;;8.82;;
24619;SDS011;12763;55.802;37.404;2024-03-23T11:26:54;16.77;;;9.07;;
24619;SDS011;12763;55.802;37.404;2024-03-23T11:29:20;17.70;;;9.55;;
24619;SDS011;12763;55.802;37.404;2024-03-23T11:31:49;18.52;;;9.88;;
24619;SDS011;12763;55.802;37.404;2024-03-23T11:34:17;16.15;;;9.20;;
24619;SDS011;12763;55.802;37.404;2024-03-23T11:36:45;18.15;;;9.45;;
24619;SDS011;12763;55.802;37.404;2024-03-23T11:39:15;17.00;;;9.75;;
24619;SDS011;12763;55.802;37.404;2024-03-23T11:41:46;17.13;;;9.63;;
24619;SDS011;12763;55.802;37.404;2024-03-23T11:46:43;23.08;;;10.95;;
24619;SDS011;12763;55.802;37.404;2024-03-23T11:49:19;19.08;;;9.77;;
24619;SDS011;12763;55.802;37.404;2024-03-23T11:51:49;19.83;;;9.50;;
24619;SDS011;12763;55.802;37.404;2024-03-23T11:54:16;17.35;;;9.10;;
24619;SDS011;12763;55.802;37.404;2024-03-23T11:56:55;17.25;;;9.70;;
24619;SDS011;12763;55.802;37.404;2024-03-23T11:59:37;19.10;;;9.80;;
24619;SDS011;12763;55.802;37.404;2024-03-23T12:02:07;19.00;;;10.45;;
24619;SDS011;12763;55.802;37.404;2024-03-23T12:04:35;23.63;;;9.27;;
24619;SDS011;12763;55.802;37.404;2024-03-23T12:07:08;18.55;;;9.80;;
24619;SDS011;12763;55.802;37.404;2024-03-23T12:09:38;20.25;;;9.38;;
24619;SDS011;12763;55.802;37.404;2024-03-23T12:14:34;20.48;;;10.07;;
24619;SDS011;12763;55.802;37.404;2024-03-23T12:17:13;20.00;;;10.38;;
24619;SDS011;12763;55.802;37.404;2024-03-23T12:19:40;19.40;;;10.98;;
24619;SDS011;12763;55.802;37.404;2024-03-23T12:22:07;18.60;;;10.90;;
24619;SDS011;12763;55.802;37.404;2024-03-23T12:24:34;17.65;;;9.32;;
24619;SDS011;12763;55.802;37.404;2024-03-23T12:27:04;20.42;;;10.43;;
24619;SDS011;12763;55.802;37.404;2024-03-23T12:29:31;21.38;;;10.40;;
24619;SDS011;12763;55.802;37.404;2024-03-23T12:32:01;19.02;;;10.18;;
24619;SDS011;12763;55.802;37.404;2024-03-23T12:34:28;24.13;;;10.82;;
24619;SDS011;12763;55.802;37.404;2024-03-23T12:36:56;22.38;;;11.20;;
24619;SDS011;12763;55.802;37.404;2024-03-23T12:39:22;22.63;;;11.90;;
24619;SDS011;12763;55.802;37.404;2024-03-23T12:41:48;24.45;;;10.63;;
24619;SDS011;12763;55.802;37.404;2024-03-23T12:44:15;21.27;;;11.18;;
24619;SDS011;12763;55.802;37.404;2024-03-23T12:46:41;24.00;;;11.25;;
24619;SDS011;12763;55.802;37.404;2024-03-23T12:49:07;20.02;;;10.50;;
24619;SDS011;12763;55.802;37.404;2024-03-23T12:51:34;23.40;;;11.40;;
24619;SDS011;12763;55.802;37.404;2024-03-23T12:54:00;26.52;;;11.48;;
24619;SDS011;12763;55.802;37.404;2024-03-23T12:56:25;22.60;;;10.93;;
24619;SDS011;12763;55.802;37.404;2024-03-23T12:58:53;21.70;;;11.45;;
24619;SDS011;12763;55.802;37.404;2024-03-23T13:01:20;20.85;;;11.25;;
24619;SDS011;12763;55.802;37.404;2024-03-23T13:03:47;22.65;;;10.73;;
24619;SDS011;12763;55.802;37.404;2024-03-23T13:06:13;20.83;;;10.63;;
24619;SDS011;12763;55.802;37.404;2024-03-23T13:08:39;25.13;;;11.82;;
24619;SDS011;12763;55.802;37.404;2024-03-23T13:11:08;24.35;;;12.18;;
24619;SDS011;12763;55.802;37.404;2024-03-23T13:13:36;25.92;;;12.85;;
24619;SDS011;12763;55.802;37.404;2024-03-23T13:16:03;22.13;;;10.88;;
24619;SDS011;12763;55.802;37.404;2024-03-23T13:18:29;20.17;;;10.45;;
24619;SDS011;12763;55.802;37.404;2024-03-23T13:20:56;21.60;;;10.98;;
24619;SDS011;12763;55.802;37.404;2024-03-23T13:23:22;23.63;;;11.73;;
24619;SDS011;12763;55.802;37.404;2024-03-23T13:25:51;21.73;;;10.88;;
24619;SDS011;12763;55.802;37.404;2024-03-23T13:28:21;24.85;;;12.02;;
24619;SDS011;12763;55.802;37.404;2024-03-23T13:30:51;21.13;;;10.43;;
24619;SDS011;12763;55.802;37.404;2024-03-23T13:33:18;23.13;;;10.65;;
24619;SDS011;12763;55.802;37.404;2024-03-23T13:38:20;21.63;;;11.90;;
24619;SDS011;12763;55.802;37.404;2024-03-23T13:40:53;19.15;;;10.52;;
24619;SDS011;12763;55.802;37.404;2024-03-23T13:43:20;20.33;;;10.07;;
24619;SDS011;12763;55.802;37.404;2024-03-23T13:45:47;19.70;;;9.05;;
24619;SDS011;12763;55.802;37.404;2024-03-23T13:48:14;19.08;;;9.43;;
24619;SDS011;12763;55.802;37.404;2024-03-23T13:53:26;18.98;;;9.18;;
24619;SDS011;12763;55.802;37.404;2024-03-23T13:55:52;18.63;;;10.05;;
24619;SDS011;12763;55.802;37.404;2024-03-23T13:58:19;25.40;;;11.50;;
24619;SDS011;12763;55.802;37.404;2024-03-23T14:00:45;17.52;;;9.00;;
24619;SDS011;12763;55.802;37.404;2024-03-23T14:03:11;19.25;;;9.10;;
24619;SDS011;12763;55.802;37.404;2024-03-23T14:05:38;18.27;;;9.23;;
24619;SDS011;12763;55.802;37.404;2024-03-23T14:08:05;20.65;;;10.25;;
24619;SDS011;12763;55.802;37.404;2024-03-23T14:10:31;15.75;;;8.32;;
24619;SDS011;12763;55.802;37.404;2024-03-23T14:12:58;19.83;;;9.13;;
24619;SDS011;12763;55.802;37.404;2024-03-23T14:15:28;16.63;;;9.23;;
24619;SDS011;12763;55.802;37.404;2024-03-23T14:17:55;16.85;;;9.00;;
24619;SDS011;12763;55.802;37.404;2024-03-23T14:20:22;18.00;;;9.13;;
24619;SDS011;12763;55.802;37.404;2024-03-23T14:22:49;17.05;;;9.43;;
24619;SDS011;12763;55.802;37.404;2024-03-23T14:25:15;22.60;;;10.55;;
24619;SDS011;12763;55.802;37.404;2024-03-23T14:27:43;19.95;;;9.77;;
24619;SDS011;12763;55.802;37.404;2024-03-23T14:30:10;19.52;;;9.68;;
24619;SDS011;12763;55.802;37.404;2024-03-23T14:32:37;18.08;;;8.18;;
24619;SDS011;12763;55.802;37.404;2024-03-23T14:35:04;14.60;;;8.30;;
24619;SDS011;12763;55.802;37.404;2024-03-23T14:37:32;16.00;;;9.38;;
24619;SDS011;12763;55.802;37.404;2024-03-23T14:39:58;18.50;;;8.93;;
24619;SDS011;12763;55.802;37.404;2024-03-23T14:42:25;15.13;;;8.77;;
24619;SDS011;12763;55.802;37.404;2024-03-23T14:44:51;16.75;;;8.85;;
24619;SDS011;12763;55.802;37.404;2024-03-23T14:47:18;15.15;;;8.30;;
24619;SDS011;12763;55.802;37.404;2024-03-23T14:49:45;16.23;;;8.57;;
24619;SDS011;12763;55.802;37.404;2024-03-23T14:52:16;16.38;;;8.82;;
24619;SDS011;12763;55.802;37.404;2024-03-23T14:54:43;15.00;;;8.65;;
24619;SDS011;12763;55.802;37.404;2024-03-23T14:57:09;17.15;;;8.73;;
24619;SDS011;12763;55.802;37.404;2024-03-23T14:59:35;16.08;;;8.45;;
24619;SDS011;12763;55.802;37.404;2024-03-23T15:02:07;15.10;;;8.00;;
24619;SDS011;12763;55.802;37.404;2024-03-23T15:04:33;16.90;;;7.88;;
24619;SDS011;12763;55.802;37.404;2024-03-23T15:07:00;14.38;;;7.47;;
24619;SDS011;12763;55.802;37.404;2024-03-23T15:09:27;16.77;;;9.35;;
24619;SDS011;12763;55.802;37.404;2024-03-23T15:11:53;16.58;;;8.45;;
24619;SDS011;12763;55.802;37.404;2024-03-23T15:14:23;20.08;;;9.65;;
24619;SDS011;12763;55.802;37.404;2024-03-23T15:16:49;15.93;;;8.95;;
24619;SDS011;12763;55.802;37.404;2024-03-23T15:19:16;16.50;;;8.65;;
24619;SDS011;12763;55.802;37.404;2024-03-23T15:21:43;14.35;;;8.35;;
24619;SDS011;12763;55.802;37.404;2024-03-23T15:24:09;15.20;;;8.82;;
24619;SDS011;12763;55.802;37.404;2024-03-23T15:26:39;16.30;;;8.25;;
24619;SDS011;12763;55.802;37.404;2024-03-23T15:29:06;15.25;;;8.82;;
24619;SDS011;12763;55.802;37.404;2024-03-23T15:31:42;14.90;;;7.75;;